Ride Results

Polish Hill River Ride (11-05-2019)
Ride distance: 80.0 km

Outcomes - Polish Hill River Ride (11-05-2019)
Division No. of Entries Retired / DNE Completed Withdrawn Ineligible V/O Percentage Completed
HW 4 - 3 - - 1 75.00%
MW 7 - 5 1 - 1 71.43%
LW 8 - 7 - - - 87.50%
JN 3 - 3 - - - 100.00%
Totals 22 - 18 1 - 2 81.82%
Results - Polish Hill River Ride (11-05-2019)
No. Rider Horse Place Time Leg Speeds Total
Km/Hr
H/R bpm
Heavyweight
190 Nicole Smith Malvern Harmony 1 (BC) 6:38:00 12.4, 11.6 12.06 36, 40, 46 (Avg:43)
113 Rachael Barnett Shady 2 7:58:00 11.5, 8.8 10.04 38, 48, 52 (Avg:50)
45 Bronya Kennedy Wychwood Just in Time 3 8:45:00 9.7, 8.6 9.14 32, 42, 48 (Avg:45)
78 Tania Drever Brechenridge Polo Lame L1 0:00:00 10.4 - 40, 42 (Avg:42)
Middleweight
97 Tracy Brandon Manduro 1 6:07:00 13.1, 12.9 13.08 36, 40, 48 (Avg:44)
95 Stella Harbison Willowstar Bay-Sil 2 (BC) 6:20:00 11.7, 13.6 12.63 42, 48, 52 (Avg:50)
70 Jil Bourton Veloce Finale 3 6:23:00 12.4, 12.6 12.53 38, 40, 48 (Avg:44)
44 Julie White Tarkhim Shar Shalenah 4 6:57:00 11.8, 11.2 11.51 39, 41, 45 (Avg:43)
232 Jodie Luck Almazaan Summer Haze 5 7:45:00 10.5, 10.0 10.32 30, 40, 44 (Avg:42)
8280 Mary Chirgwin Tunamara Sa'aran Heart Rate L2 0:00:00 11.7, 11.9 - 44, 51, 62 (Avg:56)
180 Melanie Scott Devious Suni Desert Warrior W/D after vetting L1 0:00:00 - - 36, 44, 42 (Avg:43)
Lightweight
245 Melissa Bright Kirrani's Semillon Fire 1 6:18:00 12.8, 12.5 12.70 32, 44, 50 (Avg:47)
235 Rebekah French-Davis Castlebar Dante 1 (BC) 6:18:00 13.1, 12.2 12.70 31, 48, 48 (Avg:48)
21 Cheryl Bullock Sandine Sharmadal 3 6:38:00 12.4, 11.6 12.06 36, 44, 55 (Avg:49)
200 Soli Goodes Tarkhim Shar Bastille 4 6:57:00 11.7, 11.2 11.51 32, 42, 40 (Avg:41)
940 Kylie Sandford Picnic Park Jack Frost 5 7:45:00 10.5, 10.0 10.32 44, 48, 48 (Avg:48)
942 Priya Spencer Saahir Asim 6 7:54:00 10.4, 9.7 10.13 32, 44, 44 (Avg:44)
288 Fiona Shearman Tom-May Mel-Bar Prince 7 8:45:00 9.7, 8.6 9.14 32, 40, 56 (Avg:48)
208 Erin Short Houston We Have A Problem 2:55:00 - 13.71 32, 46 (Avg:46)
Junior
944 Kieran Bright Meldana Kadeem 1 (BC) 6:19:00 12.8, 12.4 12.66 36, 43, 50 (Avg:46)
204 Jorja Gibbons Veloce Divine 2 6:23:00 12.4, 12.6 12.53 44, 48, 52 (Avg:50)
520 Imogen Raidis Castlebar Savannah 3 8:21:00 10.5, 8.7 9.58 32, 46, 52 (Avg:49)